sensor_id;sensor_type;location;lat;lon;timestamp;P1;durP1;ratioP1;P2;durP2;ratioP2
26181;SDS011;13927;51.534;11.866;2023-01-15T00:01:21;0.30;;;0.28;;
26181;SDS011;13927;51.534;11.866;2023-01-15T00:04:03;0.75;;;0.45;;
26181;SDS011;13927;51.534;11.866;2023-01-15T00:06:31;0.20;;;0.20;;
26181;SDS011;13927;51.534;11.866;2023-01-15T00:09:04;0.40;;;0.30;;
26181;SDS011;13927;51.534;11.866;2023-01-15T00:11:32;0.40;;;0.17;;
26181;SDS011;13927;51.534;11.866;2023-01-15T00:13:58;1.77;;;0.30;;
26181;SDS011;13927;51.534;11.866;2023-01-15T00:16:24;0.30;;;0.20;;
26181;SDS011;13927;51.534;11.866;2023-01-15T00:18:55;0.80;;;0.40;;
26181;SDS011;13927;51.534;11.866;2023-01-15T00:21:25;1.20;;;0.38;;
26181;SDS011;13927;51.534;11.866;2023-01-15T00:23:52;2.65;;;0.40;;
26181;SDS011;13927;51.534;11.866;2023-01-15T00:26:38;0.20;;;0.20;;
26181;SDS011;13927;51.534;11.866;2023-01-15T00:29:23;0.40;;;0.30;;
26181;SDS011;13927;51.534;11.866;2023-01-15T00:32:11;0.65;;;0.40;;
26181;SDS011;13927;51.534;11.866;2023-01-15T00:34:35;1.33;;;0.30;;
26181;SDS011;13927;51.534;11.866;2023-01-15T00:37:01;1.30;;;0.22;;
26181;SDS011;13927;51.534;11.866;2023-01-15T00:39:27;0.30;;;0.30;;
26181;SDS011;13927;51.534;11.866;2023-01-15T00:41:53;0.30;;;0.28;;
26181;SDS011;13927;51.534;11.866;2023-01-15T00:44:19;0.57;;;0.30;;
26181;SDS011;13927;51.534;11.866;2023-01-15T00:46:45;0.57;;;0.30;;
26181;SDS011;13927;51.534;11.866;2023-01-15T00:49:12;0.38;;;0.30;;
26181;SDS011;13927;51.534;11.866;2023-01-15T00:51:38;0.77;;;0.30;;
26181;SDS011;13927;51.534;11.866;2023-01-15T00:54:03;0.80;;;0.30;;
26181;SDS011;13927;51.534;11.866;2023-01-15T00:56:29;0.85;;;0.30;;
26181;SDS011;13927;51.534;11.866;2023-01-15T00:58:55;0.25;;;0.25;;
26181;SDS011;13927;51.534;11.866;2023-01-15T01:01:21;0.38;;;0.20;;
26181;SDS011;13927;51.534;11.866;2023-01-15T01:03:47;0.32;;;0.20;;
26181;SDS011;13927;51.534;11.866;2023-01-15T01:06:17;0.22;;;0.22;;
26181;SDS011;13927;51.534;11.866;2023-01-15T01:08:45;0.20;;;0.20;;
26181;SDS011;13927;51.534;11.866;2023-01-15T01:11:13;0.20;;;0.20;;
26181;SDS011;13927;51.534;11.866;2023-01-15T01:13:42;0.20;;;0.20;;
26181;SDS011;13927;51.534;11.866;2023-01-15T01:16:26;1.90;;;0.32;;
26181;SDS011;13927;51.534;11.866;2023-01-15T01:19:11;0.52;;;0.20;;
26181;SDS011;13927;51.534;11.866;2023-01-15T01:21:43;0.28;;;0.20;;
26181;SDS011;13927;51.534;11.866;2023-01-15T01:24:11;0.30;;;0.30;;
26181;SDS011;13927;51.534;11.866;2023-01-15T01:26:49;0.20;;;0.20;;
26181;SDS011;13927;51.534;11.866;2023-01-15T01:29:16;0.35;;;0.30;;
26181;SDS011;13927;51.534;11.866;2023-01-15T01:31:46;0.20;;;0.20;;
26181;SDS011;13927;51.534;11.866;2023-01-15T01:34:13;0.28;;;0.20;;
26181;SDS011;13927;51.534;11.866;2023-01-15T01:36:40;0.50;;;0.32;;
26181;SDS011;13927;51.534;11.866;2023-01-15T01:39:08;0.95;;;0.30;;
26181;SDS011;13927;51.534;11.866;2023-01-15T01:41:42;0.22;;;0.20;;
26181;SDS011;13927;51.534;11.866;2023-01-15T01:46:56;1.10;;;0.20;;
26181;SDS011;13927;51.534;11.866;2023-01-15T01:49:34;0.20;;;0.20;;
26181;SDS011;13927;51.534;11.866;2023-01-15T01:52:03;0.38;;;0.30;;
26181;SDS011;13927;51.534;11.866;2023-01-15T01:54:33;0.20;;;0.20;;
26181;SDS011;13927;51.534;11.866;2023-01-15T01:57:16;1.05;;;0.30;;
26181;SDS011;13927;51.534;11.866;2023-01-15T01:59:45;1.02;;;0.22;;
26181;SDS011;13927;51.534;11.866;2023-01-15T02:02:15;0.30;;;0.30;;
26181;SDS011;13927;51.534;11.866;2023-01-15T02:04:44;0.40;;;0.20;;
26181;SDS011;13927;51.534;11.866;2023-01-15T02:07:10;0.40;;;0.20;;
26181;SDS011;13927;51.534;11.866;2023-01-15T02:09:36;0.47;;;0.30;;
26181;SDS011;13927;51.534;11.866;2023-01-15T02:12:45;0.20;;;0.20;;
26181;SDS011;13927;51.534;11.866;2023-01-15T02:15:17;0.22;;;0.20;;
26181;SDS011;13927;51.534;11.866;2023-01-15T02:17:54;0.30;;;0.30;;
26181;SDS011;13927;51.534;11.866;2023-01-15T02:20:31;0.47;;;0.30;;
26181;SDS011;13927;51.534;11.866;2023-01-15T02:29:34;0.25;;;0.25;;
26181;SDS011;13927;51.534;11.866;2023-01-15T02:32:41;0.30;;;0.30;;
26181;SDS011;13927;51.534;11.866;2023-01-15T02:35:17;0.45;;;0.25;;
26181;SDS011;13927;51.534;11.866;2023-01-15T02:38:07;0.40;;;0.20;;
26181;SDS011;13927;51.534;11.866;2023-01-15T02:40:40;3.42;;;0.47;;
26181;SDS011;13927;51.534;11.866;2023-01-15T02:43:07;0.30;;;0.30;;
26181;SDS011;13927;51.534;11.866;2023-01-15T02:45:35;0.20;;;0.20;;
26181;SDS011;13927;51.534;11.866;2023-01-15T02:48:07;0.47;;;0.30;;
26181;SDS011;13927;51.534;11.866;2023-01-15T02:50:44;1.83;;;0.30;;
26181;SDS011;13927;51.534;11.866;2023-01-15T02:53:21;1.10;;;0.30;;
26181;SDS011;13927;51.534;11.866;2023-01-15T02:55:53;0.68;;;0.30;;
26181;SDS011;13927;51.534;11.866;2023-01-15T02:58:23;2.03;;;0.38;;
26181;SDS011;13927;51.534;11.866;2023-01-15T03:00:57;0.20;;;0.20;;
26181;SDS011;13927;51.534;11.866;2023-01-15T03:03:35;0.30;;;0.30;;
26181;SDS011;13927;51.534;11.866;2023-01-15T03:09:24;0.25;;;0.25;;
26181;SDS011;13927;51.534;11.866;2023-01-15T03:12:06;1.27;;;0.30;;
26181;SDS011;13927;51.534;11.866;2023-01-15T03:15:25;0.20;;;0.20;;
26181;SDS011;13927;51.534;11.866;2023-01-15T03:18:44;0.20;;;0.20;;
26181;SDS011;13927;51.534;11.866;2023-01-15T03:21:43;0.22;;;0.20;;
26181;SDS011;13927;51.534;11.866;2023-01-15T03:25:15;1.58;;;0.32;;
26181;SDS011;13927;51.534;11.866;2023-01-15T03:28:04;2.10;;;0.50;;
26181;SDS011;13927;51.534;11.866;2023-01-15T03:30:31;1.48;;;0.30;;
26181;SDS011;13927;51.534;11.866;2023-01-15T03:32:59;1.13;;;0.45;;
26181;SDS011;13927;51.534;11.866;2023-01-15T03:35:44;0.98;;;0.40;;
26181;SDS011;13927;51.534;11.866;2023-01-15T03:38:22;0.30;;;0.22;;
26181;SDS011;13927;51.534;11.866;2023-01-15T03:44:12;1.58;;;0.30;;
26181;SDS011;13927;51.534;11.866;2023-01-15T03:53:20;0.95;;;0.30;;
26181;SDS011;13927;51.534;11.866;2023-01-15T03:58:40;1.83;;;0.80;;
26181;SDS011;13927;51.534;11.866;2023-01-15T04:01:35;1.60;;;0.60;;
26181;SDS011;13927;51.534;11.866;2023-01-15T04:04:04;2.30;;;0.65;;
26181;SDS011;13927;51.534;11.866;2023-01-15T04:06:31;1.20;;;0.60;;
26181;SDS011;13927;51.534;11.866;2023-01-15T04:09:00;1.10;;;0.63;;
26181;SDS011;13927;51.534;11.866;2023-01-15T04:11:30;1.05;;;0.70;;
26181;SDS011;13927;51.534;11.866;2023-01-15T04:13:56;2.35;;;1.60;;
26181;SDS011;13927;51.534;11.866;2023-01-15T04:16:26;4.43;;;1.15;;
26181;SDS011;13927;51.534;11.866;2023-01-15T04:18:56;3.38;;;0.70;;
26181;SDS011;13927;51.534;11.866;2023-01-15T04:21:23;2.58;;;0.90;;
26181;SDS011;13927;51.534;11.866;2023-01-15T04:23:52;1.90;;;0.85;;
26181;SDS011;13927;51.534;11.866;2023-01-15T04:26:17;2.17;;;0.98;;
26181;SDS011;13927;51.534;11.866;2023-01-15T04:28:43;1.77;;;1.40;;
26181;SDS011;13927;51.534;11.866;2023-01-15T04:31:12;3.45;;;1.55;;
26181;SDS011;13927;51.534;11.866;2023-01-15T04:33:38;2.83;;;1.80;;
26181;SDS011;13927;51.534;11.866;2023-01-15T04:36:04;3.03;;;2.72;;
26181;SDS011;13927;51.534;11.866;2023-01-15T04:38:33;2.00;;;1.80;;
26181;SDS011;13927;51.534;11.866;2023-01-15T04:40:59;7.78;;;7.18;;
26181;SDS011;13927;51.534;11.866;2023-01-15T04:43:45;8.35;;;7.68;;
26181;SDS011;13927;51.534;11.866;2023-01-15T04:46:30;7.40;;;6.68;;
26181;SDS011;13927;51.534;11.866;2023-01-15T04:49:08;11.25;;;10.45;;
26181;SDS011;13927;51.534;11.866;2023-01-15T04:51:39;3.65;;;3.35;;
26181;SDS011;13927;51.534;11.866;2023-01-15T04:54:06;3.35;;;1.50;;
26181;SDS011;13927;51.534;11.866;2023-01-15T04:56:41;3.42;;;1.10;;
26181;SDS011;13927;51.534;11.866;2023-01-15T04:59:10;2.13;;;1.50;;
26181;SDS011;13927;51.534;11.866;2023-01-15T05:01:36;1.70;;;0.77;;
26181;SDS011;13927;51.534;11.866;2023-01-15T05:04:02;1.73;;;0.60;;
26181;SDS011;13927;51.534;11.866;2023-01-15T05:06:28;0.73;;;0.63;;
26181;SDS011;13927;51.534;11.866;2023-01-15T05:08:58;0.90;;;0.55;;
26181;SDS011;13927;51.534;11.866;2023-01-15T05:11:25;0.98;;;0.77;;
26181;SDS011;13927;51.534;11.866;2023-01-15T05:13:53;1.10;;;0.60;;
26181;SDS011;13927;51.534;11.866;2023-01-15T05:16:21;0.77;;;0.50;;
26181;SDS011;13927;51.534;11.866;2023-01-15T05:18:52;1.83;;;1.00;;
26181;SDS011;13927;51.534;11.866;2023-01-15T05:23:47;10.18;;;9.23;;
26181;SDS011;13927;51.534;11.866;2023-01-15T05:26:16;6.65;;;4.93;;
26181;SDS011;13927;51.534;11.866;2023-01-15T05:28:43;3.83;;;3.53;;
26181;SDS011;13927;51.534;11.866;2023-01-15T05:31:10;2.28;;;2.08;;
26181;SDS011;13927;51.534;11.866;2023-01-15T05:33:39;5.95;;;5.35;;
26181;SDS011;13927;51.534;11.866;2023-01-15T05:36:11;3.10;;;2.80;;
26181;SDS011;13927;51.534;11.866;2023-01-15T05:38:39;1.20;;;0.60;;
26181;SDS011;13927;51.534;11.866;2023-01-15T05:41:05;0.80;;;0.60;;
26181;SDS011;13927;51.534;11.866;2023-01-15T05:44:02;5.00;;;4.60;;
26181;SDS011;13927;51.534;11.866;2023-01-15T05:46:31;0.70;;;0.60;;
26181;SDS011;13927;51.534;11.866;2023-01-15T05:48:59;0.20;;;0.20;;
26181;SDS011;13927;51.534;11.866;2023-01-15T05:51:27;0.20;;;0.20;;
26181;SDS011;13927;51.534;11.866;2023-01-15T05:53:56;0.20;;;0.20;;
26181;SDS011;13927;51.534;11.866;2023-01-15T05:56:22;0.65;;;0.30;;
26181;SDS011;13927;51.534;11.866;2023-01-15T05:58:48;0.80;;;0.28;;
26181;SDS011;13927;51.534;11.866;2023-01-15T06:01:14;0.30;;;0.28;;
26181;SDS011;13927;51.534;11.866;2023-01-15T06:03:40;0.30;;;0.20;;
26181;SDS011;13927;51.534;11.866;2023-01-15T06:06:06;0.20;;;0.10;;
26181;SDS011;13927;51.534;11.866;2023-01-15T06:08:35;1.33;;;0.30;;
26181;SDS011;13927;51.534;11.866;2023-01-15T06:11:01;0.82;;;0.25;;
26181;SDS011;13927;51.534;11.866;2023-01-15T06:13:26;0.40;;;0.20;;
26181;SDS011;13927;51.534;11.866;2023-01-15T06:15:52;0.77;;;0.30;;
26181;SDS011;13927;51.534;11.866;2023-01-15T06:18:18;1.05;;;0.20;;
26181;SDS011;13927;51.534;11.866;2023-01-15T06:20:43;0.10;;;0.10;;
26181;SDS011;13927;51.534;11.866;2023-01-15T06:23:09;0.20;;;0.20;;
26181;SDS011;13927;51.534;11.866;2023-01-15T06:25:35;0.10;;;0.10;;
26181;SDS011;13927;51.534;11.866;2023-01-15T06:28:02;0.10;;;0.10;;
26181;SDS011;13927;51.534;11.866;2023-01-15T06:30:29;0.30;;;0.30;;
26181;SDS011;13927;51.534;11.866;2023-01-15T06:32:54;0.20;;;0.20;;
26181;SDS011;13927;51.534;11.866;2023-01-15T06:35:20;0.65;;;0.40;;
26181;SDS011;13927;51.534;11.866;2023-01-15T06:37:47;1.10;;;0.20;;
26181;SDS011;13927;51.534;11.866;2023-01-15T06:40:16;0.20;;;0.20;;
26181;SDS011;13927;51.534;11.866;2023-01-15T06:42:42;0.55;;;0.30;;
26181;SDS011;13927;51.534;11.866;2023-01-15T06:45:27;0.60;;;0.20;;
26181;SDS011;13927;51.534;11.866;2023-01-15T06:50:47;0.77;;;0.40;;
26181;SDS011;13927;51.534;11.866;2023-01-15T06:53:12;1.85;;;0.40;;
26181;SDS011;13927;51.534;11.866;2023-01-15T06:55:38;0.20;;;0.20;;
26181;SDS011;13927;51.534;11.866;2023-01-15T06:58:04;0.45;;;0.30;;
26181;SDS011;13927;51.534;11.866;2023-01-15T07:00:30;0.20;;;0.20;;
26181;SDS011;13927;51.534;11.866;2023-01-15T07:02:58;0.25;;;0.22;;
26181;SDS011;13927;51.534;11.866;2023-01-15T07:05:24;1.15;;;0.40;;
26181;SDS011;13927;51.534;11.866;2023-01-15T07:07:50;0.38;;;0.28;;
26181;SDS011;13927;51.534;11.866;2023-01-15T07:10:17;0.40;;;0.30;;
26181;SDS011;13927;51.534;11.866;2023-01-15T07:12:43;0.10;;;0.10;;
26181;SDS011;13927;51.534;11.866;2023-01-15T07:15:09;0.20;;;0.20;;
26181;SDS011;13927;51.534;11.866;2023-01-15T07:17:35;0.20;;;0.20;;
26181;SDS011;13927;51.534;11.866;2023-01-15T07:20:00;0.20;;;0.20;;
26181;SDS011;13927;51.534;11.866;2023-01-15T07:22:27;0.30;;;0.30;;
26181;SDS011;13927;51.534;11.866;2023-01-15T07:24:53;0.30;;;0.30;;
26181;SDS011;13927;51.534;11.866;2023-01-15T07:27:18;0.40;;;0.30;;
26181;SDS011;13927;51.534;11.866;2023-01-15T07:29:44;0.55;;;0.30;;
26181;SDS011;13927;51.534;11.866;2023-01-15T07:32:10;0.30;;;0.30;;
26181;SDS011;13927;51.534;11.866;2023-01-15T07:34:36;0.88;;;0.30;;
26181;SDS011;13927;51.534;11.866;2023-01-15T07:37:02;0.68;;;0.28;;
26181;SDS011;13927;51.534;11.866;2023-01-15T07:39:27;0.95;;;0.40;;
26181;SDS011;13927;51.534;11.866;2023-01-15T07:41:55;0.55;;;0.30;;
26181;SDS011;13927;51.534;11.866;2023-01-15T07:44:39;0.30;;;0.30;;
26181;SDS011;13927;51.534;11.866;2023-01-15T07:50:27;0.35;;;0.30;;
26181;SDS011;13927;51.534;11.866;2023-01-15T07:52:53;0.40;;;0.30;;
26181;SDS011;13927;51.534;11.866;2023-01-15T07:55:18;0.30;;;0.30;;
26181;SDS011;13927;51.534;11.866;2023-01-15T07:57:45;0.68;;;0.30;;
26181;SDS011;13927;51.534;11.866;2023-01-15T08:00:14;1.13;;;0.30;;
26181;SDS011;13927;51.534;11.866;2023-01-15T08:02:46;0.30;;;0.20;;
26181;SDS011;13927;51.534;11.866;2023-01-15T08:05:14;0.47;;;0.30;;
26181;SDS011;13927;51.534;11.866;2023-01-15T08:07:41;2.13;;;0.20;;
26181;SDS011;13927;51.534;11.866;2023-01-15T08:10:08;0.47;;;0.20;;
26181;SDS011;13927;51.534;11.866;2023-01-15T08:12:37;1.45;;;0.63;;
26181;SDS011;13927;51.534;11.866;2023-01-15T08:15:21;0.20;;;0.20;;
26181;SDS011;13927;51.534;11.866;2023-01-15T08:17:47;0.68;;;0.40;;
26181;SDS011;13927;51.534;11.866;2023-01-15T08:20:18;1.75;;;0.45;;
26181;SDS011;13927;51.534;11.866;2023-01-15T08:22:46;0.57;;;0.32;;
26181;SDS011;13927;51.534;11.866;2023-01-15T08:25:13;0.50;;;0.40;;
26181;SDS011;13927;51.534;11.866;2023-01-15T08:27:42;2.28;;;0.20;;
26181;SDS011;13927;51.534;11.866;2023-01-15T08:30:20;1.77;;;0.38;;
26181;SDS011;13927;51.534;11.866;2023-01-15T08:32:48;0.57;;;0.30;;
26181;SDS011;13927;51.534;11.866;2023-01-15T08:35:14;0.95;;;0.20;;
26181;SDS011;13927;51.534;11.866;2023-01-15T08:37:40;2.17;;;0.20;;
26181;SDS011;13927;51.534;11.866;2023-01-15T08:40:07;0.77;;;0.30;;
26181;SDS011;13927;51.534;11.866;2023-01-15T08:42:35;0.20;;;0.20;;
26181;SDS011;13927;51.534;11.866;2023-01-15T08:45:00;0.85;;;0.22;;
26181;SDS011;13927;51.534;11.866;2023-01-15T08:47:26;1.13;;;0.40;;
26181;SDS011;13927;51.534;11.866;2023-01-15T08:49:52;0.55;;;0.40;;
26181;SDS011;13927;51.534;11.866;2023-01-15T08:52:18;1.65;;;0.30;;
26181;SDS011;13927;51.534;11.866;2023-01-15T08:54:44;0.65;;;0.30;;
26181;SDS011;13927;51.534;11.866;2023-01-15T08:57:10;0.43;;;0.22;;
26181;SDS011;13927;51.534;11.866;2023-01-15T08:59:37;1.52;;;0.30;;
26181;SDS011;13927;51.534;11.866;2023-01-15T09:02:03;1.10;;;0.40;;
26181;SDS011;13927;51.534;11.866;2023-01-15T09:04:29;0.60;;;0.30;;
26181;SDS011;13927;51.534;11.866;2023-01-15T09:06:55;0.50;;;0.28;;
26181;SDS011;13927;51.534;11.866;2023-01-15T09:09:20;0.38;;;0.30;;
26181;SDS011;13927;51.534;11.866;2023-01-15T09:11:46;0.52;;;0.32;;
26181;SDS011;13927;51.534;11.866;2023-01-15T09:14:13;1.17;;;1.00;;
26181;SDS011;13927;51.534;11.866;2023-01-15T09:16:39;1.48;;;0.22;;
26181;SDS011;13927;51.534;11.866;2023-01-15T09:19:05;1.05;;;0.57;;
26181;SDS011;13927;51.534;11.866;2023-01-15T09:21:33;0.60;;;0.50;;
26181;SDS011;13927;51.534;11.866;2023-01-15T09:23:59;1.20;;;0.50;;
26181;SDS011;13927;51.534;11.866;2023-01-15T09:26:27;1.30;;;0.60;;
26181;SDS011;13927;51.534;11.866;2023-01-15T09:29:00;1.75;;;0.60;;
26181;SDS011;13927;51.534;11.866;2023-01-15T09:31:28;0.45;;;0.30;;
26181;SDS011;13927;51.534;11.866;2023-01-15T09:33:53;0.93;;;0.32;;
26181;SDS011;13927;51.534;11.866;2023-01-15T09:36:24;0.63;;;0.30;;
26181;SDS011;13927;51.534;11.866;2023-01-15T09:38:54;1.70;;;0.40;;
26181;SDS011;13927;51.534;11.866;2023-01-15T09:41:21;1.58;;;0.43;;
26181;SDS011;13927;51.534;11.866;2023-01-15T09:55:47;1.23;;;0.45;;
26181;SDS011;13927;51.534;11.866;2023-01-15T09:58:17;1.40;;;0.50;;
26181;SDS011;13927;51.534;11.866;2023-01-15T10:00:47;1.27;;;0.60;;
26181;SDS011;13927;51.534;11.866;2023-01-15T10:03:30;0.55;;;0.40;;
26181;SDS011;13927;51.534;11.866;2023-01-15T10:09:05;1.58;;;0.70;;
26181;SDS011;13927;51.534;11.866;2023-01-15T10:11:44;1.30;;;0.70;;
26181;SDS011;13927;51.534;11.866;2023-01-15T10:15:29;1.40;;;0.60;;
26181;SDS011;13927;51.534;11.866;2023-01-15T10:17:54;1.63;;;0.68;;
26181;SDS011;13927;51.534;11.866;2023-01-15T10:26:04;0.77;;;0.45;;
26181;SDS011;13927;51.534;11.866;2023-01-15T10:29:16;0.70;;;0.60;;
26181;SDS011;13927;51.534;11.866;2023-01-15T10:37:54;0.60;;;0.30;;
26181;SDS011;13927;51.534;11.866;2023-01-15T10:46:48;2.10;;;0.60;;
26181;SDS011;13927;51.534;11.866;2023-01-15T10:49:20;0.93;;;0.40;;
26181;SDS011;13927;51.534;11.866;2023-01-15T10:51:50;3.63;;;0.80;;
26181;SDS011;13927;51.534;11.866;2023-01-15T10:57:06;1.40;;;0.47;;
26181;SDS011;13927;51.534;11.866;2023-01-15T11:02:20;1.85;;;0.68;;
26181;SDS011;13927;51.534;11.866;2023-01-15T11:04:52;1.73;;;0.55;;
26181;SDS011;13927;51.534;11.866;2023-01-15T11:07:19;1.00;;;0.45;;
26181;SDS011;13927;51.534;11.866;2023-01-15T11:10:04;0.77;;;0.47;;
26181;SDS011;13927;51.534;11.866;2023-01-15T11:12:39;1.60;;;0.60;;
26181;SDS011;13927;51.534;11.866;2023-01-15T11:18:20;2.67;;;0.85;;
26181;SDS011;13927;51.534;11.866;2023-01-15T11:21:13;1.75;;;0.77;;
26181;SDS011;13927;51.534;11.866;2023-01-15T11:23:42;2.53;;;0.68;;
26181;SDS011;13927;51.534;11.866;2023-01-15T11:26:09;3.53;;;0.70;;
26181;SDS011;13927;51.534;11.866;2023-01-15T11:28:46;2.00;;;0.75;;
26181;SDS011;13927;51.534;11.866;2023-01-15T11:31:12;1.60;;;0.80;;
26181;SDS011;13927;51.534;11.866;2023-01-15T11:33:43;3.00;;;0.70;;
26181;SDS011;13927;51.534;11.866;2023-01-15T11:36:29;2.25;;;0.60;;
26181;SDS011;13927;51.534;11.866;2023-01-15T11:38:55;2.58;;;0.50;;
26181;SDS011;13927;51.534;11.866;2023-01-15T11:44:09;2.88;;;0.55;;
26181;SDS011;13927;51.534;11.866;2023-01-15T11:46:55;4.63;;;0.68;;
26181;SDS011;13927;51.534;11.866;2023-01-15T11:49:39;2.47;;;0.70;;
26181;SDS011;13927;51.534;11.866;2023-01-15T11:52:45;1.95;;;0.63;;
26181;SDS011;13927;51.534;11.866;2023-01-15T11:55:17;2.20;;;0.52;;
26181;SDS011;13927;51.534;11.866;2023-01-15T11:57:45;2.92;;;0.70;;
26181;SDS011;13927;51.534;11.866;2023-01-15T12:00:20;3.72;;;0.60;;
26181;SDS011;13927;51.534;11.866;2023-01-15T12:02:48;3.10;;;0.70;;
26181;SDS011;13927;51.534;11.866;2023-01-15T12:05:23;1.15;;;0.43;;
26181;SDS011;13927;51.534;11.866;2023-01-15T12:07:51;1.73;;;0.60;;
26181;SDS011;13927;51.534;11.866;2023-01-15T12:10:23;2.15;;;0.55;;
26181;SDS011;13927;51.534;11.866;2023-01-15T12:13:27;4.13;;;0.60;;
26181;SDS011;13927;51.534;11.866;2023-01-15T12:19:10;1.55;;;0.57;;
26181;SDS011;13927;51.534;11.866;2023-01-15T12:28:58;1.90;;;1.00;;
26181;SDS011;13927;51.534;11.866;2023-01-15T12:31:13;2.53;;;0.65;;
26181;SDS011;13927;51.534;11.866;2023-01-15T12:33:50;1.73;;;0.65;;
26181;SDS011;13927;51.534;11.866;2023-01-15T12:36:51;1.30;;;0.57;;
26181;SDS011;13927;51.534;11.866;2023-01-15T12:42:28;1.80;;;0.55;;
26181;SDS011;13927;51.534;11.866;2023-01-15T12:45:15;1.10;;;0.50;;
26181;SDS011;13927;51.534;11.866;2023-01-15T12:50:39;0.77;;;0.43;;
26181;SDS011;13927;51.534;11.866;2023-01-15T12:55:55;2.60;;;0.52;;
26181;SDS011;13927;51.534;11.866;2023-01-15T13:04:31;0.50;;;0.40;;
26181;SDS011;13927;51.534;11.866;2023-01-15T13:10:24;0.93;;;0.35;;
26181;SDS011;13927;51.534;11.866;2023-01-15T13:12:58;0.40;;;0.40;;
26181;SDS011;13927;51.534;11.866;2023-01-15T13:15:54;3.03;;;0.40;;
26181;SDS011;13927;51.534;11.866;2023-01-15T13:21:32;0.55;;;0.32;;
26181;SDS011;13927;51.534;11.866;2023-01-15T13:24:04;1.40;;;0.60;;
26181;SDS011;13927;51.534;11.866;2023-01-15T13:27:13;0.55;;;0.40;;
26181;SDS011;13927;51.534;11.866;2023-01-15T13:29:58;0.80;;;0.50;;
26181;SDS011;13927;51.534;11.866;2023-01-15T13:32:48;2.53;;;0.80;;
26181;SDS011;13927;51.534;11.866;2023-01-15T13:35:27;2.55;;;0.50;;
26181;SDS011;13927;51.534;11.866;2023-01-15T13:37:59;1.90;;;0.93;;
26181;SDS011;13927;51.534;11.866;2023-01-15T13:40:39;2.00;;;0.50;;
26181;SDS011;13927;51.534;11.866;2023-01-15T13:43:09;3.33;;;0.85;;
26181;SDS011;13927;51.534;11.866;2023-01-15T13:45:55;0.70;;;0.40;;
26181;SDS011;13927;51.534;11.866;2023-01-15T13:48:29;1.13;;;0.60;;
26181;SDS011;13927;51.534;11.866;2023-01-15T13:51:02;1.40;;;0.52;;
26181;SDS011;13927;51.534;11.866;2023-01-15T13:53:31;1.05;;;0.40;;
26181;SDS011;13927;51.534;11.866;2023-01-15T13:56:09;1.30;;;0.47;;
26181;SDS011;13927;51.534;11.866;2023-01-15T13:58:52;1.00;;;0.40;;
26181;SDS011;13927;51.534;11.866;2023-01-15T14:04:05;1.00;;;0.60;;
26181;SDS011;13927;51.534;11.866;2023-01-15T14:06:46;1.65;;;0.50;;
26181;SDS011;13927;51.534;11.866;2023-01-15T14:23:44;2.40;;;0.70;;
26181;SDS011;13927;51.534;11.866;2023-01-15T14:35:56;1.80;;;0.73;;
26181;SDS011;13927;51.534;11.866;2023-01-15T14:38:32;1.17;;;0.60;;
26181;SDS011;13927;51.534;11.866;2023-01-15T14:40:59;1.17;;;0.55;;
26181;SDS011;13927;51.534;11.866;2023-01-15T14:43:31;1.73;;;0.80;;
26181;SDS011;13927;51.534;11.866;2023-01-15T14:46:46;2.17;;;0.70;;
26181;SDS011;13927;51.534;11.866;2023-01-15T14:48:58;1.00;;;0.68;;
26181;SDS011;13927;51.534;11.866;2023-01-15T14:51:25;2.40;;;0.60;;
26181;SDS011;13927;51.534;11.866;2023-01-15T14:53:58;3.58;;;1.10;;
26181;SDS011;13927;51.534;11.866;2023-01-15T14:56:42;1.77;;;0.50;;
26181;SDS011;13927;51.534;11.866;2023-01-15T14:59:14;2.40;;;0.82;;
26181;SDS011;13927;51.534;11.866;2023-01-15T15:02:07;2.17;;;0.80;;
26181;SDS011;13927;51.534;11.866;2023-01-15T15:04:44;2.38;;;0.75;;
26181;SDS011;13927;51.534;11.866;2023-01-15T15:07:22;2.33;;;0.55;;
26181;SDS011;13927;51.534;11.866;2023-01-15T15:15:35;4.00;;;0.70;;
26181;SDS011;13927;51.534;11.866;2023-01-15T15:19:03;1.42;;;0.70;;
26181;SDS011;13927;51.534;11.866;2023-01-15T15:21:40;2.90;;;1.10;;
26181;SDS011;13927;51.534;11.866;2023-01-15T15:24:11;1.40;;;0.65;;
26181;SDS011;13927;51.534;11.866;2023-01-15T15:26:45;2.25;;;0.65;;
26181;SDS011;13927;51.534;11.866;2023-01-15T15:29:12;1.70;;;0.55;;
26181;SDS011;13927;51.534;11.866;2023-01-15T15:34:23;2.60;;;0.70;;
26181;SDS011;13927;51.534;11.866;2023-01-15T15:37:12;4.63;;;1.02;;
26181;SDS011;13927;51.534;11.866;2023-01-15T15:39:51;1.20;;;0.65;;
26181;SDS011;13927;51.534;11.866;2023-01-15T15:42:46;4.65;;;1.13;;
26181;SDS011;13927;51.534;11.866;2023-01-15T15:46:20;3.20;;;0.75;;
26181;SDS011;13927;51.534;11.866;2023-01-15T15:49:09;1.02;;;0.70;;
26181;SDS011;13927;51.534;11.866;2023-01-15T15:51:43;1.23;;;0.40;;
26181;SDS011;13927;51.534;11.866;2023-01-15T15:54:21;7.57;;;1.00;;
26181;SDS011;13927;51.534;11.866;2023-01-15T15:56:52;2.00;;;0.77;;
26181;SDS011;13927;51.534;11.866;2023-01-15T15:59:49;4.05;;;0.95;;
26181;SDS011;13927;51.534;11.866;2023-01-15T16:02:17;4.63;;;0.90;;
26181;SDS011;13927;51.534;11.866;2023-01-15T16:04:49;4.90;;;0.80;;
26181;SDS011;13927;51.534;11.866;2023-01-15T16:07:25;1.08;;;0.60;;
26181;SDS011;13927;51.534;11.866;2023-01-15T16:12:59;3.47;;;0.70;;
26181;SDS011;13927;51.534;11.866;2023-01-15T16:15:33;2.33;;;0.80;;
26181;SDS011;13927;51.534;11.866;2023-01-15T16:18:03;1.98;;;0.98;;
26181;SDS011;13927;51.534;11.866;2023-01-15T16:20:29;2.05;;;0.73;;
26181;SDS011;13927;51.534;11.866;2023-01-15T16:23:00;1.10;;;0.60;;
26181;SDS011;13927;51.534;11.866;2023-01-15T16:25:31;2.17;;;0.68;;
26181;SDS011;13927;51.534;11.866;2023-01-15T16:28:04;1.95;;;0.73;;
26181;SDS011;13927;51.534;11.866;2023-01-15T16:30:30;2.95;;;0.70;;
26181;SDS011;13927;51.534;11.866;2023-01-15T16:33:01;2.72;;;0.70;;
26181;SDS011;13927;51.534;11.866;2023-01-15T16:35:30;1.20;;;0.65;;
26181;SDS011;13927;51.534;11.866;2023-01-15T16:38:02;3.08;;;0.80;;
26181;SDS011;13927;51.534;11.866;2023-01-15T16:40:37;3.35;;;0.60;;
26181;SDS011;13927;51.534;11.866;2023-01-15T16:43:05;1.95;;;0.70;;
26181;SDS011;13927;51.534;11.866;2023-01-15T16:51:22;7.10;;;0.82;;
26181;SDS011;13927;51.534;11.866;2023-01-15T16:53:50;1.92;;;0.80;;
26181;SDS011;13927;51.534;11.866;2023-01-15T16:59:03;1.77;;;0.77;;
26181;SDS011;13927;51.534;11.866;2023-01-15T17:01:41;3.92;;;1.50;;
26181;SDS011;13927;51.534;11.866;2023-01-15T17:04:29;4.68;;;1.10;;
26181;SDS011;13927;51.534;11.866;2023-01-15T17:07:02;3.22;;;0.80;;
26181;SDS011;13927;51.534;11.866;2023-01-15T17:09:32;2.97;;;0.90;;
26181;SDS011;13927;51.534;11.866;2023-01-15T17:12:03;2.03;;;0.70;;
26181;SDS011;13927;51.534;11.866;2023-01-15T17:14:38;4.22;;;1.00;;
26181;SDS011;13927;51.534;11.866;2023-01-15T17:17:15;1.67;;;0.80;;
26181;SDS011;13927;51.534;11.866;2023-01-15T17:19:47;2.75;;;0.90;;
26181;SDS011;13927;51.534;11.866;2023-01-15T17:22:27;2.50;;;0.60;;
26181;SDS011;13927;51.534;11.866;2023-01-15T17:27:54;2.00;;;0.77;;
26181;SDS011;13927;51.534;11.866;2023-01-15T17:30:19;2.75;;;0.98;;
26181;SDS011;13927;51.534;11.866;2023-01-15T17:32:46;3.63;;;0.60;;
26181;SDS011;13927;51.534;11.866;2023-01-15T17:35:17;2.47;;;0.70;;
26181;SDS011;13927;51.534;11.866;2023-01-15T17:37:51;1.17;;;0.60;;
26181;SDS011;13927;51.534;11.866;2023-01-15T17:40:17;2.08;;;0.75;;
26181;SDS011;13927;51.534;11.866;2023-01-15T17:42:43;2.17;;;0.80;;
26181;SDS011;13927;51.534;11.866;2023-01-15T17:45:45;2.17;;;0.90;;
26181;SDS011;13927;51.534;11.866;2023-01-15T17:48:04;4.18;;;0.93;;